Time;durP1;ratioP1;P1;durP2;ratioP2;P2;SDS_P1;SDS_P2;PMS_P1;PMS_P2;Temp;Humidity;BMP_temperature;BMP_pressure;BME280_temperature;BME280_humidity;BME280_pressure;Samples;Min_cycle;Max_cycle;Signal;HPM_P1;HPM_P2
2022/08/11 00:00:07;;;;;;;6.55;1.60;;;;;;;23.32;36.30;99164.22;4476362;31;20072;-81
2022/08/11 00:02:40;;;;;;;4.90;1.50;;;;;;;23.31;36.30;99156.31;4503713;31;20084;-80
2022/08/11 00:05:21;;;;;;;5.87;1.65;;;;;;;22.83;37.21;99160.22;4503679;31;20083;-80
2022/08/11 00:07:52;;;;;;;3.53;1.40;;;;;;;23.27;36.32;99147.72;4489200;31;20088;-81
2022/08/11 00:10:25;;;;;;;7.07;1.70;;;;;;;23.29;36.32;99153.78;4489269;31;20076;-81
2022/08/11 00:12:55;;;;;;;4.55;1.42;;;;;;;23.31;36.20;99148.25;4489279;31;20404;-81
2022/08/11 00:15:22;;;;;;;6.70;1.70;;;;;;;23.07;36.73;99148.91;4489383;31;20099;-81
2022/08/11 00:17:49;;;;;;;4.80;1.52;;;;;;;23.15;36.56;99147.13;4489285;31;20087;-80
2022/08/11 00:20:15;;;;;;;4.35;1.73;;;;;;;23.05;36.87;99145.53;4489349;31;20084;-81
2022/08/11 00:22:43;;;;;;;5.00;1.60;;;;;;;22.94;37.05;99143.88;4489246;31;20148;-81
2022/08/11 00:25:19;;;;;;;4.93;1.50;;;;;;;22.49;38.01;99145.63;4503474;31;20100;-80
2022/08/11 00:27:46;;;;;;;5.78;1.92;;;;;;;22.92;37.29;99145.88;4476062;31;20131;-80
2022/08/11 00:30:12;;;;;;;4.25;1.60;;;;;;;22.82;37.43;99137.06;4489081;31;20359;-80
2022/08/11 00:32:40;;;;;;;6.55;1.70;;;;;;;22.53;38.12;99143.50;4475909;31;20084;-80
2022/08/11 00:35:07;;;;;;;6.72;1.92;;;;;;;22.36;38.54;99139.78;4488986;31;20096;-80
2022/08/11 00:37:33;;;;;;;4.55;1.52;;;;;;;22.44;38.42;99130.97;4503378;31;20115;-80
2022/08/11 00:40:00;;;;;;;4.65;1.52;;;;;;;22.31;38.69;99136.69;4489117;31;20381;-81
2022/08/11 00:42:32;;;;;;;5.20;1.55;;;;;;;22.46;38.45;99140.56;4488968;31;20100;-80
2022/08/11 00:45:26;;;;;;;6.07;1.60;;;;;;;22.72;38.00;99137.16;4503526;31;20076;-80
2022/08/11 00:48:13;;;;;;;5.22;1.60;;;;;;;22.66;38.12;99132.41;4489229;31;20084;-80
2022/08/11 00:51:16;;;;;;;5.25;1.52;;;;;;;22.66;38.10;99138.59;4488861;31;20383;-80
2022/08/11 00:54:02;;;;;;;4.75;1.60;;;;;;;22.42;38.69;99132.97;4488968;31;20126;-80
2022/08/11 00:57:02;;;;;;;4.72;1.70;;;;;;;22.38;38.81;99140.47;4489101;31;20091;-81
2022/08/11 00:59:37;;;;;;;5.80;1.70;;;;;;;22.71;38.15;99141.66;4503427;31;20084;-81
2022/08/11 01:02:11;;;;;;;5.43;2.00;;;;;;;22.81;37.96;99138.88;4503278;31;20103;-81
2022/08/11 01:04:39;;;;;;;3.97;1.50;;;;;;;22.93;37.74;99131.47;4488613;31;20432;-81
2022/08/11 01:07:50;;;;;;;4.00;1.40;;;;;;;22.67;38.32;99144.81;4503223;31;20104;-80
2022/08/11 01:10:40;;;;;;;5.70;1.70;;;;;;;22.34;39.04;99134.56;4503360;31;20106;-80
2022/08/11 01:13:18;;;;;;;6.65;1.67;;;;;;;22.16;39.49;99137.19;4503304;31;20076;-81
2022/08/11 01:16:02;;;;;;;5.22;1.60;;;;;;;22.61;38.56;99138.19;4488925;31;20164;-81
2022/08/11 01:18:30;;;;;;;6.50;1.60;;;;;;;22.52;38.80;99139.09;4503270;31;20459;-80
2022/08/11 01:21:17;;;;;;;5.43;1.40;;;;;;;22.45;39.05;99133.50;4503189;31;20132;-80
2022/08/11 01:24:10;;;;;;;5.22;1.60;;;;;;;22.30;39.33;99135.84;4503180;31;20459;-80
2022/08/11 01:27:12;;;;;;;4.97;1.50;;;;;;;22.47;39.12;99134.19;4503047;31;20107;-80
2022/08/11 01:30:15;;;;;;;7.90;1.85;;;;;;;22.27;39.50;99136.19;4503305;31;20383;-80
2022/08/11 01:33:18;;;;;;;5.85;1.80;;;;;;;22.39;39.29;99134.13;4503069;31;20080;-80
2022/08/11 01:36:15;;;;;;;5.10;1.58;;;;;;;22.46;39.12;99126.28;4501060;31;20102;-80
2022/08/11 01:39:12;;;;;;;4.55;1.35;;;;;;;22.30;39.45;99127.81;4502988;31;20416;-80
2022/08/11 01:44:55;;;;;;;6.78;1.80;;;;;;;22.68;38.70;99115.13;4502992;31;20122;-81
2022/08/11 01:47:51;;;;;;;5.15;1.50;;;;;;;22.46;39.25;99127.13;4502962;31;20088;-81
2022/08/11 01:50:45;;;;;;;5.50;1.50;;;;;;;22.56;38.97;99122.56;4503040;31;20118;-81
2022/08/11 01:53:34;;;;;;;4.03;1.60;;;;;;;22.54;39.09;99119.19;4500091;31;20089;-80
2022/08/11 01:56:11;;;;;;;5.87;1.55;;;;;;;22.42;39.39;99125.75;4502900;31;20149;-80
2022/08/11 01:58:56;;;;;;;5.25;1.60;;;;;;;22.53;39.12;99130.91;4488416;31;20106;-80
2022/08/11 02:01:31;;;;;;;4.68;1.67;;;;;;;22.26;39.84;99118.38;4475570;31;20100;-81
2022/08/11 02:04:22;;;;;;;5.45;1.52;;;;;;;22.42;39.44;99119.53;4502941;31;20106;-81
2022/08/11 02:06:54;;;;;;;6.10;1.73;;;;;;;22.15;40.13;99115.84;4502847;31;20106;-81
2022/08/11 02:09:40;;;;;;;4.18;1.50;;;;;;;22.24;39.97;99108.75;4488590;31;20523;-80
2022/08/11 02:12:33;;;;;;;5.70;1.62;;;;;;;22.45;39.48;99103.97;4488371;31;20112;-81
2022/08/11 02:15:42;;;;;;;6.20;1.40;;;;;;;22.09;40.30;99106.56;4502767;31;20450;-81
2022/08/11 02:18:15;;;;;;;6.40;1.45;;;;;;;22.51;39.46;99111.41;4501674;31;20080;-80
2022/08/11 02:23:54;;;;;;;3.10;1.20;;;;;;;22.42;39.66;99100.75;4490622;31;20155;-81
2022/08/11 02:26:22;;;;;;;5.05;1.65;;;;;;;22.54;39.42;99105.75;4488251;31;20091;-81
2022/08/11 02:29:03;;;;;;;5.68;1.40;;;;;;;22.47;39.53;99103.84;4488341;31;20101;-80
2022/08/11 02:34:54;;;;;;;4.85;1.60;;;;;;;21.86;40.98;99103.44;4494953;31;234160;-80
2022/08/11 02:37:29;;;;;;;4.72;1.60;;;;;;;21.80;41.10;99104.03;4502490;31;20083;-80
2022/08/11 02:39:58;;;;;;;4.75;1.50;;;;;;;21.70;41.38;99097.88;4488217;31;20123;-80
2022/08/11 02:42:32;;;;;;;5.35;1.40;;;;;;;21.79;41.18;99100.50;4502457;31;20076;-80
2022/08/11 02:45:35;;;;;;;4.97;1.48;;;;;;;21.92;41.03;99100.19;4474832;31;20467;-81
2022/08/11 02:51:43;;;;;;;4.90;1.58;;;;;;;21.93;40.88;99096.47;4502394;31;20110;-81
2022/08/11 02:54:33;;;;;;;5.28;1.58;;;;;;;22.00;40.83;99086.03;4409274;32;20371;-80
2022/08/11 02:57:01;;;;;;;4.15;1.50;;;;;;;22.11;40.54;99082.28;4422219;32;20175;-80
2022/08/11 02:59:56;;;;;;;4.07;1.42;;;;;;;21.97;40.87;99097.03;4422100;32;20174;-81
2022/08/11 03:02:30;;;;;;;4.55;1.73;;;;;;;22.00;40.81;99102.13;4409280;32;20433;-81
2022/08/11 03:05:06;;;;;;;4.87;1.65;;;;;;;22.24;40.38;99090.81;4422007;32;20089;-81
2022/08/11 03:08:01;;;;;;;5.28;1.45;;;;;;;22.06;40.74;99090.78;4421983;32;20093;-79
2022/08/11 03:10:44;;;;;;;4.50;1.50;;;;;;;21.90;41.21;99094.09;4422298;32;20094;-80
2022/08/11 03:16:45;;;;;;;3.62;1.30;;;;;;;21.98;41.01;99093.34;4421754;32;20100;-80
2022/08/11 03:19:17;;;;;;;3.53;1.50;;;;;;;21.65;41.88;99100.13;4421815;32;20090;-80
2022/08/11 03:22:07;;;;;;;6.47;1.55;;;;;;;22.17;40.63;99093.25;4421722;32;20102;-81
2022/08/11 03:25:05;;;;;;;4.78;1.50;;;;;;;22.02;41.21;99091.22;4421728;32;20098;-80
2022/08/11 03:27:48;;;;;;;4.90;1.48;;;;;;;21.94;41.18;99103.56;4415933;31;20119;-80
2022/08/11 03:30:14;;;;;;;4.87;1.35;;;;;;;22.04;41.05;99089.22;4503975;31;20436;-80
2022/08/11 03:34:01;;;;;;;4.78;1.58;;;;;;;22.30;40.35;99089.41;4503822;31;20072;-80
2022/08/11 03:35:54;;;;;;;3.72;1.50;;;;;;;22.19;40.47;99090.41;4503624;31;20520;-81
2022/08/11 03:38:24;;;;;;;6.95;1.50;;;;;;;22.28;40.30;99094.91;4489744;31;20416;-81
2022/08/11 03:44:14;;;;;;;5.60;1.70;;;;;;;21.71;41.57;99099.53;4491690;31;20118;-80
2022/08/11 03:46:44;;;;;;;3.83;1.60;;;;;;;22.05;40.90;99099.81;4489541;31;20106;-81
2022/08/11 03:49:27;;;;;;;4.72;1.42;;;;;;;21.72;41.87;99090.53;4503764;31;20189;-80
2022/08/11 03:52:21;;;;;;;5.70;2.22;;;;;;;22.17;40.63;99095.94;4489491;31;20100;-81
2022/08/11 03:55:22;;;;;;;4.65;1.70;;;;;;;22.25;40.49;99100.59;4489443;31;20100;-81
2022/08/11 03:58:15;;;;;;;6.57;1.60;;;;;;;22.42;39.96;99092.69;4489583;31;20076;-80
2022/08/11 04:00:53;;;;;;;4.30;1.42;;;;;;;22.60;39.61;99092.69;4503859;31;20064;-81
2022/08/11 04:03:33;;;;;;;5.65;1.70;;;;;;;22.49;39.83;99096.47;4503675;31;20083;-81
2022/08/11 04:06:20;;;;;;;4.97;1.50;;;;;;;22.47;39.99;99101.16;4503689;31;20395;-81
2022/08/11 04:09:14;;;;;;;3.95;1.42;;;;;;;22.68;39.65;99101.69;4504074;31;20114;-81
2022/08/11 04:12:07;;;;;;;4.60;1.40;;;;;;;22.90;39.47;99102.22;4489701;31;20106;-81
2022/08/11 04:18:14;;;;;;;4.10;1.48;;;;;;;22.89;39.06;99100.50;4503717;31;20122;-81
2022/08/11 04:21:09;;;;;;;3.97;1.30;;;;;;;22.91;39.24;99098.53;4489269;31;20155;-81
2022/08/11 04:24:02;;;;;;;4.07;1.25;;;;;;;23.12;38.74;99093.69;4476047;31;20103;-81
2022/08/11 04:26:46;;;;;;;4.37;1.30;;;;;;;22.92;39.20;99098.38;4503538;31;20368;-81
2022/08/11 04:29:51;;;;;;;5.43;1.50;;;;;;;23.03;38.71;99099.19;4503532;31;20092;-81
2022/08/11 04:32:35;;;;;;;4.62;1.55;;;;;;;23.33;38.21;99104.09;4489254;31;20427;-81
2022/08/11 04:35:16;;;;;;;5.62;1.40;;;;;;;23.44;38.33;99102.97;4503132;31;20084;-80
2022/08/11 04:37:53;;;;;;;4.10;1.20;;;;;;;23.53;37.57;99101.19;4503401;31;20100;-81
2022/08/11 04:40:43;;;;;;;5.97;1.73;;;;;;;23.36;38.06;99111.84;4502939;31;20137;-81
2022/08/11 04:43:40;;;;;;;4.87;1.55;;;;;;;23.34;37.78;99105.78;4503544;31;20072;-81
2022/08/11 04:46:32;;;;;;;5.40;1.75;;;;;;;23.28;38.10;99109.09;4503403;31;20443;-81
2022/08/11 05:02:09;;;;;;;3.70;1.37;;;;;;;24.44;35.63;99097.03;4491131;31;20165;-80
2022/08/11 05:07:44;;;;;;;4.70;1.40;;;;;;;24.32;35.94;99107.28;4503340;31;20102;-81
2022/08/11 05:10:28;;;;;;;3.90;1.50;;;;;;;24.52;35.90;99097.09;4503243;31;20592;-81
2022/08/11 05:36:52;;;;;;;5.72;1.60;;;;;;;24.23;35.51;99124.41;4427561;32;20492;-81
2022/08/11 05:56:19;;;;;;;4.00;1.30;;;;;;;25.09;34.10;99132.16;4470532;32;20143;-81
2022/08/11 05:58:54;;;;;;;4.72;1.55;;;;;;;25.25;33.67;99125.97;4470506;32;20092;-81
2022/08/11 06:01:24;;;;;;;6.45;1.70;;;;;;;25.04;34.15;99129.12;4471480;32;20160;-81
2022/08/11 06:06:40;;;;;;;5.82;1.55;;;;;;;25.08;33.93;99133.16;4470224;32;20098;-81
2022/08/11 06:09:07;;;;;;;5.35;1.77;;;;;;;25.08;33.85;99130.47;4470170;32;20152;-81
2022/08/11 06:11:41;;;;;;;3.30;1.40;;;;;;;24.90;34.15;99129.81;4470158;32;20092;-80
2022/08/11 06:14:08;;;;;;;5.07;1.52;;;;;;;25.42;33.29;99121.38;4471273;32;20107;-81
2022/08/11 06:16:34;;;;;;;4.00;1.55;;;;;;;25.94;32.64;99124.66;4469993;32;20077;-81
2022/08/11 06:18:59;;;;;;;5.05;1.30;;;;;;;25.71;32.25;99117.28;4470050;32;20141;-80
2022/08/11 06:21:26;;;;;;;4.62;1.50;;;;;;;25.59;32.53;99124.03;4471219;32;20111;-83
2022/08/11 06:23:51;;;;;;;5.20;1.55;;;;;;;25.46;32.70;99121.91;4471143;32;20546;-82
2022/08/11 06:26:19;;;;;;;6.57;1.70;;;;;;;25.77;32.54;99115.72;4469957;32;20106;-86
2022/08/11 06:28:45;;;;;;;5.97;1.60;;;;;;;25.55;33.22;99125.41;4469923;32;20119;-80
2022/08/11 06:31:23;;;;;;;4.85;1.40;;;;;;;25.75;32.75;99120.44;4469971;32;20421;-81
2022/08/11 06:34:00;;;;;;;4.85;1.60;;;;;;;25.18;33.37;99121.38;4473723;32;20178;-81
2022/08/11 06:36:45;;;;;;;6.87;1.58;;;;;;;25.85;32.73;99116.56;4485629;32;20092;-81
2022/08/11 06:39:31;;;;;;;6.25;1.80;;;;;;;26.23;31.97;99118.59;4486755;31;20114;-81
2022/08/11 06:42:06;;;;;;;7.65;1.73;;;;;;;26.40;31.58;99111.25;4485558;32;20092;-81
2022/08/11 06:44:45;;;;;;;4.90;1.70;;;;;;;25.50;32.80;99124.06;4485625;32;20087;-81
2022/08/11 06:47:12;;;;;;;5.82;1.58;;;;;;;25.99;32.45;99111.47;4486595;31;20092;-80
2022/08/11 06:52:34;;;;;;;5.72;2.00;;;;;;;26.02;31.58;99117.37;4483908;32;20115;-80
2022/08/11 07:00:26;;;;;;;4.82;1.50;;;;;;;26.59;31.36;99110.84;4478322;32;20073;-80
2022/08/11 07:00:47;;;;;;;6.07;1.80;;;;;;;26.60;30.08;99115.22;4467163;32;20115;-80
2022/08/11 07:03:15;;;;;;;7.30;1.62;;;;;;;26.16;31.38;99113.09;4468699;32;20511;-80
2022/08/11 07:06:16;;;;;;;4.60;1.55;;;;;;;25.80;31.85;99107.28;4471295;32;20085;-80
2022/08/11 07:17:20;;;;;;;4.78;1.45;;;;;;;26.74;30.68;99107.38;4439401;32;20150;-80
2022/08/11 07:30:59;;;;;;;3.85;1.33;;;;;;;26.14;30.63;99108.87;4439115;32;20128;-81
2022/08/11 07:33:31;;;;;;;7.15;1.42;;;;;;;26.13;31.14;99110.72;4426054;32;20120;-81
2022/08/11 07:35:59;;;;;;;6.20;1.50;;;;;;;26.41;30.72;99110.25;4426557;32;20093;-81
2022/08/11 07:38:42;;;;;;;4.30;1.40;;;;;;;26.55;30.35;99108.66;4439307;32;20097;-80
2022/08/11 07:41:13;;;;;;;4.97;1.42;;;;;;;26.78;30.08;99109.53;4439402;32;20338;-81
2022/08/11 07:43:39;;;;;;;5.20;1.83;;;;;;;27.01;29.86;99106.81;4426567;32;20133;-81
2022/08/11 07:54:19;;;;;;;8.13;1.50;;;;;;;26.30;29.09;99100.69;4455658;32;20169;-81
2022/08/11 07:56:46;;;;;;;4.28;1.20;;;;;;;26.94;28.25;99102.31;4455784;32;20108;-81
2022/08/11 08:18:24;;;;;;;5.70;1.48;;;;;;;27.32;28.43;99092.38;4455687;32;20127;-81
2022/08/11 08:20:50;;;;;;;5.37;1.50;;;;;;;27.37;28.61;99084.56;4455409;32;20333;-81
2022/08/11 08:23:16;;;;;;;5.28;1.60;;;;;;;27.81;27.91;99088.28;4455340;32;20126;-80
2022/08/11 08:25:43;;;;;;;7.18;1.70;;;;;;;27.89;27.98;99084.66;4455261;32;20119;-81
2022/08/11 08:28:12;;;;;;;5.12;1.40;;;;;;;26.59;29.21;99104.59;4455403;32;20122;-80
2022/08/11 08:30:54;;;;;;;5.55;1.62;;;;;;;27.23;28.52;99096.97;4455298;32;20148;-81
2022/08/11 08:33:23;;;;;;;6.12;1.98;;;;;;;27.32;28.44;99099.66;4458090;32;20190;-80
2022/08/11 08:36:09;;;;;;;5.07;1.37;;;;;;;27.54;28.06;99085.19;4473484;32;20097;-80
2022/08/11 08:38:38;;;;;;;7.57;1.50;;;;;;;27.74;28.44;99087.34;4475878;32;20105;-81
2022/08/11 08:41:04;;;;;;;4.40;1.60;;;;;;;28.12;27.74;99088.06;4487903;32;20113;-81
2022/08/11 08:43:30;;;;;;;4.00;1.30;;;;;;;28.12;27.69;99084.53;4473616;32;20080;-80
2022/08/11 08:45:56;;;;;;;4.72;1.37;;;;;;;27.62;28.69;99092.38;4473669;32;20140;-80
2022/08/11 08:48:23;;;;;;;5.18;1.60;;;;;;;27.42;28.32;99090.22;4473608;32;20486;-81
2022/08/11 08:53:40;;;;;;;5.15;1.80;;;;;;;27.10;28.99;99083.25;4475378;32;20027;-80
2022/08/11 08:56:06;;;;;;;4.45;1.80;;;;;;;26.92;29.39;99074.62;4473268;32;20132;-81
2022/08/11 08:58:33;;;;;;;5.75;1.50;;;;;;;27.12;29.46;99072.22;4473313;32;20577;-81
2022/08/11 09:00:59;;;;;;;;;;;;;;;26.95;29.17;99071.56;4487810;32;20118;-80
2022/08/11 09:03:26;;;;;;;7.03;1.50;;;;;;;27.10;28.76;99067.03;4487534;32;19990;-81
2022/08/11 09:05:52;;;;;;;;;;;;;;;27.02;28.46;99067.09;4460642;32;20127;-81
2022/08/11 09:08:20;;;;;;;4.95;1.30;;;;;;;26.94;28.01;99077.97;4473287;32;20116;-80
2022/08/11 09:11:48;;;;;;;4.25;1.33;;;;;;;27.40;27.66;99067.09;4473388;32;20119;-81
2022/08/11 09:13:33;;;;;;;3.72;1.35;;;;;;;27.51;27.21;99058.53;4475434;32;20081;-80
2022/08/11 09:15:59;;;;;;;4.77;1.30;;;;;;;27.47;26.57;99057.22;4487334;32;20444;-80
2022/08/11 09:18:24;;;;;;;3.67;1.10;;;;;;;26.57;27.89;99058.81;4473119;32;20215;-81
2022/08/11 09:20:50;;;;;;;3.97;1.10;;;;;;;26.98;27.54;99042.28;4473065;32;20137;-80
2022/08/11 09:28:45;;;;;;;3.28;1.20;;;;;;;27.95;24.97;99033.31;4475411;32;20119;-80
2022/08/11 09:31:12;;;;;;;5.40;1.10;;;;;;;27.79;23.94;99050.56;4473068;32;20179;-80
2022/08/11 09:33:38;;;;;;;3.90;1.10;;;;;;;27.37;24.71;99043.09;4472969;32;20100;-81
2022/08/11 09:40:27;;;;;;;3.80;1.10;;;;;;;27.42;24.68;99033.41;4473298;32;20489;-80
2022/08/11 09:41:36;;;;;;;2.60;1.00;;;;;;;27.39;24.71;99031.09;4475193;32;20111;-80
2022/08/11 09:46:47;;;;;;;4.30;1.00;;;;;;;28.58;23.81;99025.47;4475198;32;20534;-80
2022/08/11 09:49:13;;;;;;;3.40;1.20;;;;;;;28.86;23.37;99012.97;4472931;32;20104;-80
2022/08/11 09:51:40;;;;;;;4.28;1.10;;;;;;;28.82;23.38;99018.81;4459851;32;20106;-80
2022/08/11 09:54:06;;;;;;;4.22;1.25;;;;;;;29.09;23.27;99010.00;4459647;32;20515;-80
2022/08/11 09:59:19;;;;;;;6.25;1.40;;;;;;;29.31;23.04;99018.97;4475066;32;20122;-80
2022/08/11 10:01:50;;;;;;;4.80;1.30;;;;;;;29.18;23.61;99017.00;4487011;32;20439;-80
2022/08/11 10:04:18;;;;;;;5.22;1.48;;;;;;;28.43;25.07;99024.66;4472856;32;20155;-80
2022/08/11 10:07:00;;;;;;;5.97;1.27;;;;;;;28.86;24.15;99021.09;4472717;32;20409;-80
2022/08/11 10:09:26;;;;;;;3.70;1.23;;;;;;;28.82;24.61;99010.66;4473975;32;20127;-80
2022/08/11 10:11:55;;;;;;;7.43;1.98;;;;;;;28.04;25.43;99029.44;4486884;32;20085;-80
2022/08/11 10:17:08;;;;;;;4.50;1.20;;;;;;;28.07;24.87;99014.69;4474942;32;20123;-80
2022/08/11 10:19:37;;;;;;;6.00;1.20;;;;;;;27.73;25.52;99020.72;4486982;32;20493;-80
2022/08/11 10:27:35;;;;;;;4.43;1.10;;;;;;;27.81;24.50;99007.88;4486962;32;20250;-80
2022/08/11 10:35:46;;;;;;;3.45;1.20;;;;;;;27.91;23.95;98991.41;4396434;32;20107;-80
2022/08/11 10:38:13;;;;;;;4.18;1.30;;;;;;;28.49;22.94;98985.97;4393484;32;20126;-80
2022/08/11 10:40:39;;;;;;;;;;;;;;;28.45;23.64;98984.66;4394909;32;20110;-80
2022/08/11 10:43:11;;;;;;;3.83;1.23;;;;;;;28.95;22.93;98982.78;4394540;32;19985;-80
2022/08/11 10:48:29;;;;;;;6.10;1.42;;;;;;;29.36;22.73;98970.34;4396252;32;20176;-80
2022/08/11 10:51:13;;;;;;;4.68;1.20;;;;;;;29.27;22.99;98961.53;4394383;32;20196;-79
2022/08/11 10:59:15;;;;;;;5.40;1.30;;;;;;;28.65;22.03;98963.19;4406929;32;20124;-80
2022/08/11 11:01:42;;;;;;;7.20;1.20;;;;;;;28.19;23.67;98972.53;4394141;32;20114;-80
2022/08/11 11:04:21;;;;;;;5.45;1.35;;;;;;;28.22;24.17;98963.16;4394251;32;20189;-80
2022/08/11 11:06:53;;;;;;;3.58;1.40;;;;;;;28.48;23.50;98962.59;4438085;32;20103;-81
2022/08/11 11:09:32;;;;;;;3.10;1.12;;;;;;;29.01;22.54;98952.19;4486270;32;20089;-81
2022/08/11 11:18:10;;;;;;;6.37;1.33;;;;;;;29.34;21.43;98935.28;4474307;32;20115;-80
2022/08/11 11:20:59;;;;;;;5.82;1.20;;;;;;;29.85;19.98;98931.31;4471801;32;20126;-80
2022/08/11 11:23:32;;;;;;;;;;;;;;;30.14;20.10;98924.69;4477743;32;20447;-80
2022/08/11 11:26:25;;;;;;;3.87;1.10;;;;;;;30.46;20.18;98930.41;4486249;32;19980;-80
2022/08/11 11:29:12;;;;;;;4.53;1.20;;;;;;;29.71;20.64;98927.72;4471789;32;20110;-80
2022/08/11 11:32:02;;;;;;;2.47;1.10;;;;;;;29.64;19.88;98928.72;4486128;32;20161;-80
2022/08/11 11:34:57;;;;;;;4.03;1.15;;;;;;;29.13;19.98;98938.06;4485601;31;20096;-80
2022/08/11 11:37:23;;;;;;;1.70;0.95;;;;;;;29.42;19.95;98923.44;4485999;32;20084;-81
2022/08/11 11:39:48;;;;;;;2.78;1.20;;;;;;;29.96;19.69;98919.88;4485894;32;20367;-80
2022/08/11 11:42:16;;;;;;;4.12;1.10;;;;;;;30.47;18.94;98912.22;4471694;32;20104;-80
2022/08/11 11:44:42;;;;;;;;;;;;;;;30.65;18.77;98920.53;4486145;32;20100;-80
2022/08/11 11:47:10;;;;;;;2.90;1.00;;;;;;;30.54;18.49;98924.75;4471738;32;19972;-80
2022/08/11 11:49:39;;;;;;;5.10;1.33;;;;;;;30.62;17.93;98910.09;4472770;32;20077;-80
2022/08/11 11:52:06;;;;;;;3.37;1.00;;;;;;;30.56;18.08;98916.38;4474161;32;20093;-80
2022/08/11 11:54:35;;;;;;;2.95;1.00;;;;;;;29.72;18.79;98912.25;4473682;32;20084;-80
2022/08/11 12:01:14;;;;;;;4.32;1.02;;;;;;;29.94;18.65;98908.38;4473980;32;20079;-80
2022/08/11 12:02:35;;;;;;;3.03;1.10;;;;;;;30.41;18.66;98907.59;4475871;32;20114;-80
2022/08/11 12:05:01;;;;;;;3.73;1.20;;;;;;;30.34;18.84;98913.84;4473668;32;20112;-80
2022/08/11 12:10:12;;;;;;;4.15;1.10;;;;;;;29.26;20.84;98902.87;4475833;32;20087;-80
2022/08/11 12:15:22;;;;;;;2.55;1.00;;;;;;;29.14;21.07;98909.91;4487843;32;20114;-80
2022/08/11 12:17:48;;;;;;;3.35;1.10;;;;;;;29.09;21.21;98898.78;4473509;32;20091;-79
2022/08/11 12:20:18;;;;;;;2.15;0.90;;;;;;;29.02;20.99;98899.59;4487621;32;20107;-80
2022/08/11 12:28:12;;;;;;;4.03;1.12;;;;;;;29.90;20.24;98893.53;4475687;32;20107;-80
2022/08/11 12:30:40;;;;;;;3.67;1.30;;;;;;;29.78;20.84;98893.28;4473441;32;20123;-80
2022/08/11 12:33:06;;;;;;;6.22;1.27;;;;;;;30.45;19.80;98890.66;4473789;32;20487;-80
2022/08/11 12:35:34;;;;;;;2.90;1.10;;;;;;;30.67;19.12;98879.56;4473301;32;20459;-80
2022/08/11 12:38:01;;;;;;;4.35;1.20;;;;;;;31.09;19.11;98877.38;4487676;32;20415;-80
2022/08/11 12:46:00;;;;;;;3.22;1.10;;;;;;;29.85;20.58;98896.03;4475571;32;20213;-81
2022/08/11 12:54:13;;;;;;;2.65;1.10;;;;;;;30.04;20.30;98867.22;4487541;32;20131;-80
2022/08/11 13:05:05;;;;;;;3.10;0.95;;;;;;;30.27;19.99;98863.22;4475414;32;20168;-80
2022/08/11 13:07:32;;;;;;;3.83;1.00;;;;;;;30.87;19.70;98861.31;4473179;32;20096;-80
2022/08/11 13:09:59;;;;;;;3.50;0.90;;;;;;;31.12;19.18;98845.16;4473318;32;20088;-80
2022/08/11 13:15:13;;;;;;;3.25;1.10;;;;;;;31.09;19.08;98851.00;4475268;32;20135;-80
2022/08/11 13:17:40;;;;;;;2.90;1.10;;;;;;;30.17;20.06;98859.06;4487564;32;20101;-80
2022/08/11 13:20:08;;;;;;;2.20;0.80;;;;;;;29.48;20.91;98857.47;4473275;32;20163;-81
2022/08/11 13:22:34;;;;;;;3.42;1.17;;;;;;;29.93;20.68;98849.66;4472968;32;20539;-80
2022/08/11 13:24:59;;;;;;;3.90;1.10;;;;;;;29.83;21.02;98854.66;4473097;32;20124;-80
2022/08/11 13:27:25;;;;;;;3.17;1.50;;;;;;;29.75;21.44;98849.44;4487238;32;20439;-80
2022/08/11 13:31:09;;;;;;;6.05;1.30;;;;;;;29.71;21.99;98856.25;4473092;32;20372;-80
2022/08/11 13:32:39;;;;;;;5.80;1.37;;;;;;;29.47;22.54;98857.66;4475091;32;20092;-80
2022/08/11 13:35:05;;;;;;;3.42;1.08;;;;;;;29.13;23.23;98845.84;4459597;32;20122;-80
2022/08/11 13:37:33;;;;;;;3.62;1.00;;;;;;;29.39;22.92;98847.84;4473072;32;20235;-80
2022/08/11 13:40:00;;;;;;;3.42;1.02;;;;;;;29.47;22.90;98846.81;4487185;32;20111;-80
2022/08/11 13:42:27;;;;;;;2.50;1.00;;;;;;;29.40;23.03;98846.81;4473168;32;20102;-80
2022/08/11 13:44:54;;;;;;;5.10;1.35;;;;;;;29.54;23.06;98837.66;4472996;32;20176;-80
2022/08/11 13:47:22;;;;;;;2.03;1.00;;;;;;;29.63;22.93;98832.84;4473266;32;20120;-80
2022/08/11 13:49:49;;;;;;;5.65;1.00;;;;;;;29.31;23.18;98843.41;4460081;32;20080;-80
2022/08/11 13:52:15;;;;;;;4.32;1.20;;;;;;;29.64;22.93;98833.72;4487061;32;20202;-80
2022/08/11 13:54:42;;;;;;;1.62;0.95;;;;;;;29.83;22.80;98840.25;4473001;32;20237;-80
2022/08/11 13:57:10;;;;;;;3.23;1.00;;;;;;;29.81;22.54;98828.75;4487496;32;20092;-80
2022/08/11 13:59:37;;;;;;;3.15;1.10;;;;;;;29.35;23.32;98824.84;4473014;32;20084;-80
2022/08/11 14:02:06;;;;;;;4.47;1.20;;;;;;;29.50;23.04;98832.84;4472838;32;20433;-80
2022/08/11 14:04:38;;;;;;;2.17;0.80;;;;;;;29.54;23.30;98821.38;4487336;32;20092;-80
2022/08/11 14:07:06;;;;;;;2.45;1.00;;;;;;;29.51;23.30;98820.94;4487078;32;20104;-80
2022/08/11 14:09:38;;;;;;;2.37;1.00;;;;;;;29.40;23.55;98835.94;4472848;32;20829;-80
2022/08/11 14:15:00;;;;;;;2.65;0.85;;;;;;;28.83;23.95;98830.66;4474853;32;20485;-80
2022/08/11 14:17:28;;;;;;;4.65;1.10;;;;;;;29.22;23.70;98820.22;4472965;32;20495;-80
2022/08/11 14:19:54;;;;;;;1.83;0.93;;;;;;;29.52;23.01;98819.91;4472990;32;20084;-80
2022/08/11 14:22:20;;;;;;;2.22;0.85;;;;;;;29.89;22.71;98810.38;4472758;32;20142;-80
2022/08/11 14:24:48;;;;;;;1.80;0.80;;;;;;;29.68;22.95;98810.53;4472718;32;20130;-80
2022/08/11 14:27:14;;;;;;;3.42;1.00;;;;;;;29.63;22.99;98826.59;4472874;32;20104;-80
2022/08/11 14:29:40;;;;;;;3.45;1.00;;;;;;;29.02;23.55;98817.41;4472506;32;20092;-80
2022/08/11 14:32:11;;;;;;;2.37;1.00;;;;;;;29.11;23.49;98816.19;4472735;32;20077;-80
2022/08/11 14:34:40;;;;;;;2.65;0.82;;;;;;;28.98;23.85;98816.12;4472370;32;20156;-80
2022/08/11 14:37:09;;;;;;;3.05;1.10;;;;;;;29.47;23.39;98809.63;4472585;32;20122;-80
2022/08/11 14:39:40;;;;;;;3.28;0.98;;;;;;;29.40;23.02;98814.25;4472671;32;20084;-80
2022/08/11 14:47:29;;;;;;;;;;;;;;;28.88;23.50;98813.81;4487239;32;20084;-80
2022/08/11 14:49:56;;;;;;;3.75;0.90;;;;;;;29.35;22.64;98805.88;4472535;32;20010;-80
2022/08/11 14:52:22;;;;;;;3.85;0.95;;;;;;;29.62;22.20;98811.34;4486550;32;20136;-80
2022/08/11 14:57:36;;;;;;;4.90;1.00;;;;;;;29.55;22.29;98801.34;4474475;32;20118;-80
2022/08/11 15:00:05;;;;;;;3.58;1.15;;;;;;;29.41;22.36;98805.88;4472145;32;20106;-80
2022/08/11 15:05:19;;;;;;;4.95;1.05;;;;;;;29.35;22.33;98805.88;4474312;32;20163;-80
2022/08/11 15:07:44;;;;;;;4.65;1.00;;;;;;;28.36;23.34;98801.59;4472231;32;20127;-80
2022/08/11 15:10:10;;;;;;;3.17;1.05;;;;;;;28.86;22.80;98806.88;4471925;32;20386;-80
2022/08/11 15:12:40;;;;;;;2.15;0.93;;;;;;;29.13;22.34;98807.88;4472181;32;20084;-80
2022/08/11 15:18:05;;;;;;;2.62;0.90;;;;;;;29.58;21.96;98800.06;4452715;32;20185;-80
2022/08/11 15:26:02;;;;;;;7.43;1.15;;;;;;;29.48;21.83;98805.06;4454725;32;20178;-80
2022/08/11 15:45:46;;;;;;;3.40;0.82;;;;;;;28.96;22.27;98797.34;4443704;32;20179;-80
2022/08/11 15:47:56;;;;;;;2.05;0.90;;;;;;;28.71;22.65;98793.50;4454496;32;20254;-80
2022/08/11 15:50:28;;;;;;;3.33;0.90;;;;;;;28.98;22.48;98791.72;4441634;32;20192;-80
2022/08/11 15:53:08;;;;;;;2.30;0.80;;;;;;;29.18;22.31;98789.94;4447298;32;20114;-80
2022/08/11 15:55:35;;;;;;;2.17;0.80;;;;;;;28.63;22.90;98795.31;4460628;32;20092;-80
2022/08/11 16:06:23;;;;;;;1.95;0.80;;;;;;;28.67;22.88;98781.37;4487930;32;20103;-80
2022/08/11 16:08:49;;;;;;;2.33;0.85;;;;;;;28.98;22.45;98786.31;4473610;32;20154;-80
2022/08/11 16:11:15;;;;;;;2.42;1.00;;;;;;;28.42;23.26;98790.78;4487918;32;20123;-80
2022/08/11 16:16:14;;;;;;;4.05;0.90;;;;;;;28.14;23.90;98788.06;4473533;32;20084;-80
2022/08/11 16:18:48;;;;;;;2.53;1.20;;;;;;;28.23;23.97;98786.91;4474313;32;20468;-80
2022/08/11 16:21:16;;;;;;;3.92;1.10;;;;;;;28.15;24.54;98784.34;4487860;32;20463;-79
2022/08/11 16:23:46;;;;;;;2.45;0.90;;;;;;;27.42;25.83;98783.69;4460431;32;20156;-80
2022/08/11 16:26:14;;;;;;;3.67;1.02;;;;;;;27.28;26.28;98795.41;4460377;32;20144;-80
2022/08/11 16:28:43;;;;;;;4.25;0.80;;;;;;;27.17;26.65;98792.09;4473439;32;20130;-80
2022/08/11 16:31:10;;;;;;;4.95;1.20;;;;;;;27.07;26.99;98799.69;4473805;32;20119;-80
2022/08/11 16:33:39;;;;;;;2.70;1.10;;;;;;;27.00;27.16;98793.34;4473444;32;20084;-80